createdAt,value
2018-12-13T00:00:37.037Z,5.44
2018-12-13T00:01:36.976Z,5.49
2018-12-13T00:02:36.961Z,5.51
2018-12-13T00:03:36.946Z,5.58
2018-12-13T00:04:36.945Z,5.49
2018-12-13T00:05:36.924Z,5.56
2018-12-13T00:06:36.912Z,5.58
2018-12-13T00:07:36.901Z,5.58
2018-12-13T00:08:36.882Z,5.60
2018-12-13T00:09:36.868Z,5.59
2018-12-13T00:10:36.857Z,5.60
2018-12-13T00:11:36.845Z,5.60
2018-12-13T00:12:36.836Z,5.56
2018-12-13T00:13:36.823Z,5.48
2018-12-13T00:14:36.809Z,5.44
2018-12-13T00:15:36.797Z,5.41
2018-12-13T00:16:36.779Z,5.40
2018-12-13T00:17:36.766Z,5.38
2018-12-13T00:18:36.757Z,5.33
2018-12-13T00:19:36.744Z,5.30
2018-12-13T00:20:36.732Z,5.24
2018-12-13T00:21:36.714Z,5.27
2018-12-13T00:22:36.701Z,5.23
2018-12-13T00:23:36.747Z,5.29
2018-12-13T00:24:36.682Z,5.24
2018-12-13T00:25:36.667Z,5.23
2018-12-13T00:26:36.655Z,5.23
2018-12-13T00:27:36.643Z,5.30
2018-12-13T00:28:36.625Z,5.29
2018-12-13T00:29:36.612Z,5.30
2018-12-13T00:30:36.598Z,5.23
2018-12-13T00:31:36.587Z,5.26
2018-12-13T00:32:36.577Z,5.23
2018-12-13T00:33:36.563Z,5.20
2018-12-13T00:34:36.550Z,5.23
2018-12-13T00:35:36.534Z,5.19
2018-12-13T00:36:39.724Z,5.08
2018-12-13T00:37:36.513Z,5.06
2018-12-13T00:38:36.499Z,5.05
2018-12-13T00:39:36.487Z,5.06
2018-12-13T00:40:36.469Z,5.09
2018-12-13T00:41:36.455Z,5.08
2018-12-13T00:42:36.444Z,4.94
2018-12-13T00:43:36.429Z,4.99
2018-12-13T00:44:36.422Z,4.97
2018-12-13T00:45:36.408Z,4.90
2018-12-13T00:46:36.395Z,4.93
2018-12-13T00:47:36.381Z,4.88
2018-12-13T00:48:36.364Z,4.91
2018-12-13T00:49:36.350Z,4.80
2018-12-13T00:50:36.342Z,4.77
2018-12-13T00:51:36.331Z,4.72
2018-12-13T00:52:36.314Z,4.72
2018-12-13T00:53:36.297Z,4.61
2018-12-13T00:54:36.285Z,4.65
2018-12-13T00:55:36.272Z,4.62
2018-12-13T00:56:36.262Z,4.56
2018-12-13T00:57:36.271Z,4.47
2018-12-13T00:58:36.231Z,4.50
2018-12-13T00:59:36.220Z,4.46
2018-12-13T01:00:36.209Z,4.46
2018-12-13T01:01:36.196Z,4.46
2018-12-13T01:02:36.182Z,4.50
2018-12-13T01:03:36.168Z,4.51
2018-12-13T01:04:36.151Z,4.42
2018-12-13T01:05:36.140Z,4.46
2018-12-13T01:06:36.130Z,4.42
2018-12-13T01:07:36.117Z,4.53
2018-12-13T01:08:36.096Z,4.49
2018-12-13T01:09:36.082Z,4.38
2018-12-13T01:10:36.663Z,4.44
2018-12-13T01:11:36.056Z,4.44
2018-12-13T01:12:36.047Z,4.39
2018-12-13T01:13:36.033Z,4.34
2018-12-13T01:14:36.020Z,4.46
2018-12-13T01:15:36.005Z,4.42
2018-12-13T01:16:35.988Z,4.44
2018-12-13T01:17:35.974Z,4.28
2018-12-13T01:18:35.961Z,4.26
2018-12-13T01:19:35.949Z,4.32
2018-12-13T01:20:35.939Z,4.31
2018-12-13T01:21:35.925Z,4.29
2018-12-13T01:22:35.907Z,4.29
2018-12-13T01:23:35.893Z,4.31
2018-12-13T01:24:35.885Z,4.31
2018-12-13T01:25:35.872Z,4.28
2018-12-13T01:26:35.856Z,4.28
2018-12-13T01:27:35.844Z,4.28
2018-12-13T01:28:35.829Z,4.31
2018-12-13T01:29:35.811Z,4.14
2018-12-13T01:30:35.797Z,4.34
2018-12-13T01:31:35.784Z,4.17
2018-12-13T01:32:35.778Z,4.26
2018-12-13T01:33:35.761Z,4.18
2018-12-13T01:34:35.748Z,4.31
2018-12-13T01:35:35.734Z,4.14
2018-12-13T01:36:35.717Z,4.13
2018-12-13T01:37:35.703Z,4.16
2018-12-13T01:38:35.693Z,4.17
2018-12-13T01:39:35.680Z,4.20
2018-12-13T01:40:35.662Z,4.21
2018-12-13T01:41:35.647Z,4.11
2018-12-13T01:42:35.635Z,4.14
2018-12-13T01:43:35.620Z,4.14
2018-12-13T01:44:35.612Z,4.14
2018-12-13T01:45:35.598Z,4.10
2018-12-13T01:46:35.583Z,4.08
2018-12-13T01:47:35.570Z,4.10
2018-12-13T01:48:35.552Z,4.07
2018-12-13T01:49:35.538Z,4.13
2018-12-13T01:50:35.524Z,4.06
2018-12-13T01:51:35.510Z,4.02
2018-12-13T01:52:35.503Z,4.06
2018-12-13T01:53:35.487Z,4.02
2018-12-13T01:54:35.469Z,4.06
2018-12-13T01:55:35.457Z,4.07
2018-12-13T01:56:35.446Z,4.00
2018-12-13T01:57:35.432Z,4.00
2018-12-13T01:58:35.418Z,4.00
2018-12-13T01:59:35.405Z,4.00
2018-12-13T02:00:35.387Z,3.99
2018-12-13T02:01:35.374Z,3.99
2018-12-13T02:02:35.360Z,3.96
2018-12-13T02:03:35.395Z,3.98
2018-12-13T02:04:35.336Z,3.99
2018-12-13T02:05:35.323Z,3.99
2018-12-13T02:06:35.308Z,3.95
2018-12-13T02:07:35.295Z,3.93
2018-12-13T02:08:35.277Z,3.93
2018-12-13T02:09:35.263Z,3.86
2018-12-13T02:10:35.253Z,3.92
2018-12-13T02:11:35.239Z,3.90
2018-12-13T02:12:35.222Z,3.92
2018-12-13T02:13:35.207Z,3.92
2018-12-13T02:14:35.197Z,3.78
2018-12-13T02:15:35.180Z,3.75
2018-12-13T02:16:35.173Z,3.78
2018-12-13T02:17:35.158Z,3.77
2018-12-13T02:18:35.143Z,3.74
2018-12-13T02:19:35.130Z,3.75
2018-12-13T02:20:35.112Z,3.78
2018-12-13T02:21:35.096Z,3.78
2018-12-13T02:22:35.083Z,3.84
2018-12-13T02:23:35.077Z,3.81
2018-12-13T02:24:35.060Z,3.81
2018-12-13T02:25:35.045Z,3.75
2018-12-13T02:26:35.027Z,3.89
2018-12-13T02:27:35.015Z,3.84
2018-12-13T02:28:35.004Z,3.78
2018-12-13T02:29:34.990Z,3.82
2018-12-13T02:30:34.978Z,3.88
2018-12-13T02:31:34.964Z,3.80
2018-12-13T02:32:34.946Z,3.84
2018-12-13T02:33:34.931Z,3.82
2018-12-13T02:34:34.919Z,3.74
2018-12-13T02:35:34.903Z,3.78
2018-12-13T02:36:34.897Z,3.75
2018-12-13T02:37:34.880Z,3.81
2018-12-13T02:38:34.873Z,3.77
2018-12-13T02:39:34.851Z,3.90
2018-12-13T02:40:34.834Z,3.75
2018-12-13T02:41:34.833Z,3.84
2018-12-13T02:42:34.808Z,3.88
2018-12-13T02:43:34.796Z,3.86
2018-12-13T02:44:34.778Z,3.82
2018-12-13T02:45:34.763Z,3.84
2018-12-13T02:46:34.751Z,3.74
2018-12-13T02:47:34.735Z,3.81
2018-12-13T02:48:34.727Z,3.80
2018-12-13T02:49:34.728Z,3.84
2018-12-13T02:50:34.698Z,3.78
2018-12-13T02:51:34.684Z,3.78
2018-12-13T02:52:34.666Z,3.86
2018-12-13T02:53:34.651Z,3.71
2018-12-13T02:54:34.637Z,3.86
2018-12-13T02:55:34.623Z,3.82
2018-12-13T02:56:34.613Z,3.78
2018-12-13T02:57:34.600Z,3.82
2018-12-13T02:58:34.581Z,3.95
2018-12-13T02:59:34.567Z,3.86
2018-12-13T03:00:34.557Z,3.95
2018-12-13T03:01:34.544Z,3.88
2018-12-13T03:02:34.530Z,3.90
2018-12-13T03:03:34.517Z,3.90
2018-12-13T03:04:34.498Z,3.93
2018-12-13T03:05:34.482Z,3.99
2018-12-13T03:06:34.469Z,3.99
2018-12-13T03:07:34.455Z,4.00
2018-12-13T03:08:34.447Z,3.96
2018-12-13T03:09:34.430Z,3.96
2018-12-13T03:10:34.419Z,3.96
2018-12-13T03:11:34.405Z,3.93
2018-12-13T03:12:34.387Z,3.98
2018-12-13T03:13:34.371Z,3.99
2018-12-13T03:14:34.363Z,3.98
2018-12-13T03:15:34.348Z,3.90
2018-12-13T03:16:34.339Z,3.89
2018-12-13T03:17:34.316Z,3.89
2018-12-13T03:18:34.301Z,3.93
2018-12-13T03:19:34.289Z,3.92
2018-12-13T03:20:34.279Z,3.84
2018-12-13T03:21:34.264Z,3.95
2018-12-13T03:22:34.251Z,3.93
2018-12-13T03:23:34.238Z,3.92
2018-12-13T03:24:34.219Z,3.89
2018-12-13T03:25:34.206Z,3.86
2018-12-13T03:26:34.191Z,3.72
2018-12-13T03:27:34.176Z,3.81
2018-12-13T03:28:34.182Z,3.84
2018-12-13T03:29:34.154Z,3.80
2018-12-13T03:30:34.135Z,3.81
2018-12-13T03:31:34.122Z,3.75
2018-12-13T03:32:34.113Z,3.82
2018-12-13T03:33:34.100Z,3.74
2018-12-13T03:34:34.083Z,3.77
2018-12-13T03:35:34.069Z,3.74
2018-12-13T03:36:34.051Z,3.72
2018-12-13T03:37:34.037Z,3.70
2018-12-13T03:38:34.022Z,3.72
2018-12-13T03:39:34.009Z,3.63
2018-12-13T03:40:34.000Z,3.62
2018-12-13T03:41:33.986Z,3.67
2018-12-13T03:42:33.972Z,3.60
2018-12-13T03:43:33.958Z,3.71
2018-12-13T03:44:33.939Z,3.57
2018-12-13T03:45:33.924Z,3.53
2018-12-13T03:46:33.916Z,3.57
2018-12-13T03:47:33.903Z,3.56
2018-12-13T03:48:33.882Z,3.59
2018-12-13T03:49:33.873Z,3.53
2018-12-13T03:50:33.857Z,3.56
2018-12-13T03:51:33.840Z,3.56
2018-12-13T03:52:33.831Z,3.50
2018-12-13T03:53:33.816Z,3.53
2018-12-13T03:54:33.803Z,3.53
2018-12-13T03:55:33.789Z,3.50
2018-12-13T03:56:33.770Z,3.44
2018-12-13T03:57:33.754Z,3.49
2018-12-13T03:58:33.740Z,3.42
2018-12-13T03:59:33.727Z,3.39
2018-12-13T04:00:33.718Z,3.44
2018-12-13T04:01:33.703Z,3.41
2018-12-13T04:02:33.696Z,3.34
2018-12-13T04:03:33.669Z,3.37
2018-12-13T04:04:33.661Z,3.35
2018-12-13T04:05:33.648Z,3.26
2018-12-13T04:06:33.631Z,3.31
2018-12-13T04:07:33.618Z,3.31
2018-12-13T04:08:33.599Z,3.31
2018-12-13T04:09:33.584Z,3.35
2018-12-13T04:10:33.571Z,3.30
2018-12-13T04:11:33.556Z,3.34
2018-12-13T04:12:33.552Z,3.31
2018-12-13T04:13:33.552Z,3.35
2018-12-13T04:14:33.517Z,3.30
2018-12-13T04:15:33.505Z,3.31
2018-12-13T04:16:33.486Z,3.23
2018-12-13T04:17:33.472Z,3.26
2018-12-13T04:18:33.460Z,3.13
2018-12-13T04:19:33.446Z,3.23
2018-12-13T04:20:33.438Z,3.20
2018-12-13T04:21:33.414Z,3.17
2018-12-13T04:22:33.398Z,3.25
2018-12-13T04:23:33.386Z,3.28
2018-12-13T04:24:33.377Z,3.26
2018-12-13T04:25:33.359Z,3.28
2018-12-13T04:26:33.347Z,3.23
2018-12-13T04:27:33.333Z,3.26
2018-12-13T04:28:33.315Z,3.25
2018-12-13T04:29:33.299Z,3.30
2018-12-13T04:30:33.286Z,3.25
2018-12-13T04:31:33.270Z,3.25
2018-12-13T04:32:33.260Z,3.23
2018-12-13T04:33:33.246Z,3.17
2018-12-13T04:34:33.226Z,3.15
2018-12-13T04:35:33.212Z,3.12
2018-12-13T04:36:33.207Z,3.19
2018-12-13T04:37:35.353Z,3.17
2018-12-13T04:38:33.174Z,3.17
2018-12-13T04:39:33.161Z,3.15
2018-12-13T04:40:33.141Z,3.12
2018-12-13T04:41:33.129Z,3.15
2018-12-13T04:42:33.115Z,3.13
2018-12-13T04:43:33.097Z,3.05
2018-12-13T04:44:33.088Z,3.05
2018-12-13T04:45:33.074Z,3.07
2018-12-13T04:46:33.059Z,3.05
2018-12-13T04:47:33.047Z,3.02
2018-12-13T04:48:33.028Z,3.08
2018-12-13T04:49:33.014Z,3.08
2018-12-13T04:50:33.001Z,3.10
2018-12-13T04:51:32.986Z,3.02
2018-12-13T04:52:32.968Z,3.04
2018-12-13T04:53:32.953Z,3.04
2018-12-13T04:54:32.942Z,3.01
2018-12-13T04:55:32.925Z,3.01
2018-12-13T04:56:32.916Z,2.97
2018-12-13T04:57:32.899Z,2.99
2018-12-13T04:58:32.886Z,3.05
2018-12-13T04:59:32.871Z,2.97
2018-12-13T05:00:32.852Z,2.87
2018-12-13T05:01:32.838Z,2.89
2018-12-13T05:02:32.823Z,2.94
2018-12-13T05:03:32.810Z,2.95
2018-12-13T05:04:32.801Z,2.92
2018-12-13T05:05:32.783Z,2.84
2018-12-13T05:06:32.765Z,2.89
2018-12-13T05:07:32.751Z,2.90
2018-12-13T05:08:32.741Z,2.94
2018-12-13T05:09:32.726Z,2.87
2018-12-13T05:10:32.713Z,2.83
2018-12-13T05:11:32.699Z,3.01
2018-12-13T05:12:32.679Z,2.97
2018-12-13T05:13:32.663Z,2.89
2018-12-13T05:14:32.649Z,2.83
2018-12-13T05:15:32.638Z,2.73
2018-12-13T05:16:32.627Z,2.68
2018-12-13T05:17:32.611Z,2.73
2018-12-13T05:18:32.598Z,2.76
2018-12-13T05:19:32.583Z,2.74
2018-12-13T05:20:32.564Z,2.74
2018-12-13T05:21:32.549Z,2.71
2018-12-13T05:22:32.540Z,2.66
2018-12-13T05:23:32.526Z,2.65
2018-12-13T05:24:32.509Z,2.68
2018-12-13T05:25:32.491Z,2.73
2018-12-13T05:26:32.479Z,2.76
2018-12-13T05:27:32.462Z,2.69
2018-12-13T05:28:32.453Z,2.65
2018-12-13T05:29:32.438Z,2.65
2018-12-13T05:30:32.426Z,2.68
2018-12-13T05:31:32.411Z,2.48
2018-12-13T05:32:32.391Z,2.47
2018-12-13T05:33:32.375Z,2.55
2018-12-13T05:34:32.361Z,2.43
2018-12-13T05:35:32.347Z,2.38
2018-12-13T05:36:32.338Z,2.30
2018-12-13T05:37:32.323Z,2.29
2018-12-13T05:38:32.303Z,2.27
2018-12-13T05:39:32.297Z,2.20
2018-12-13T05:40:32.280Z,2.25
2018-12-13T05:41:32.264Z,2.20
2018-12-13T05:42:32.251Z,2.20
2018-12-13T05:43:32.238Z,2.22
2018-12-13T05:44:32.217Z,2.20
2018-12-13T05:45:32.203Z,2.19
2018-12-13T05:46:32.187Z,2.18
2018-12-13T05:47:32.176Z,2.19
2018-12-13T05:48:32.164Z,2.11
2018-12-13T05:49:32.149Z,2.09
2018-12-13T05:50:32.136Z,2.07
2018-12-13T05:51:32.132Z,2.05
2018-12-13T05:52:32.100Z,2.12
2018-12-13T05:53:32.085Z,2.14
2018-12-13T05:54:32.076Z,2.04
2018-12-13T05:55:32.061Z,2.12
2018-12-13T05:56:32.042Z,2.15
2018-12-13T05:57:32.027Z,2.11
2018-12-13T05:58:32.013Z,2.08
2018-12-13T05:59:31.998Z,2.01
2018-12-13T06:00:31.989Z,1.98
2018-12-13T06:01:31.974Z,1.93
2018-12-13T06:02:31.958Z,2.01
2018-12-13T06:03:31.946Z,2.01
2018-12-13T06:04:31.925Z,2.01
2018-12-13T06:05:31.912Z,1.92
2018-12-13T06:06:31.896Z,1.88
2018-12-13T06:07:31.884Z,1.88
2018-12-13T06:08:31.871Z,1.82
2018-12-13T06:09:31.855Z,1.83
2018-12-13T06:10:31.838Z,1.85
2018-12-13T06:11:31.822Z,1.74
2018-12-13T06:12:31.812Z,1.70
2018-12-13T06:13:31.796Z,1.72
2018-12-13T06:14:31.784Z,1.65
2018-12-13T06:15:31.768Z,1.64
2018-12-13T06:16:31.750Z,1.57
2018-12-13T06:17:31.734Z,1.68
2018-12-13T06:18:31.720Z,1.63
2018-12-13T06:19:31.706Z,1.71
2018-12-13T06:20:31.696Z,1.67
2018-12-13T06:21:36.801Z,1.70
2018-12-13T06:22:31.665Z,1.70
2018-12-13T06:23:31.652Z,1.70
2018-12-13T06:24:31.633Z,1.67
2018-12-13T06:25:31.618Z,1.67
2018-12-13T06:26:31.607Z,1.68
2018-12-13T06:27:31.593Z,1.74
2018-12-13T06:28:31.574Z,1.67
2018-12-13T06:29:31.559Z,1.70
2018-12-13T06:30:31.545Z,1.72
2018-12-13T06:31:31.529Z,1.72
2018-12-13T06:32:31.520Z,1.74
2018-12-13T06:33:31.505Z,1.85
2018-12-13T06:34:31.489Z,1.82
2018-12-13T06:35:31.474Z,1.81
2018-12-13T06:36:31.455Z,1.82
2018-12-13T06:37:31.440Z,1.83
2018-12-13T06:38:31.425Z,1.86
2018-12-13T06:39:31.411Z,1.82
2018-12-13T06:40:31.402Z,1.75
2018-12-13T06:41:31.445Z,1.70
2018-12-13T06:42:31.367Z,1.75
2018-12-13T06:43:31.352Z,1.75
2018-12-13T06:44:31.343Z,1.82
2018-12-13T06:45:31.327Z,1.85
2018-12-13T06:46:31.313Z,1.85
2018-12-13T06:47:31.299Z,1.83
2018-12-13T06:48:31.278Z,1.88
2018-12-13T06:49:31.263Z,1.86
2018-12-13T06:50:31.248Z,2.02
2018-12-13T06:51:31.235Z,2.05
2018-12-13T06:52:31.223Z,1.98
2018-12-13T06:53:31.210Z,2.02
2018-12-13T06:54:31.194Z,2.05
2018-12-13T06:55:31.180Z,2.08
2018-12-13T06:56:31.164Z,2.05
2018-12-13T06:57:31.145Z,2.01
2018-12-13T06:58:31.135Z,2.04
2018-12-13T06:59:31.120Z,2.00
2018-12-13T07:00:31.102Z,2.07
2018-12-13T07:01:31.084Z,2.00
2018-12-13T07:02:31.070Z,2.05
2018-12-13T07:03:31.055Z,2.05
2018-12-13T07:04:31.046Z,2.05
2018-12-13T07:05:31.031Z,2.04
2018-12-13T07:06:31.017Z,2.01
2018-12-13T07:07:31.001Z,1.98
2018-12-13T07:08:30.981Z,2.27
2018-12-13T07:09:30.966Z,2.25
2018-12-13T07:10:30.952Z,2.40
2018-12-13T07:11:30.938Z,2.33
2018-12-13T07:12:30.928Z,2.30
2018-12-13T07:13:30.914Z,2.37
2018-12-13T07:14:30.892Z,2.37
2018-12-13T07:15:30.879Z,2.47
2018-12-13T07:16:30.869Z,2.53
2018-12-13T07:17:30.853Z,2.47
2018-12-13T07:18:30.840Z,2.40
2018-12-13T07:19:30.823Z,2.58
2018-12-13T07:20:30.805Z,2.63
2018-12-13T07:21:30.789Z,2.47
2018-12-13T07:22:30.777Z,2.61
2018-12-13T07:23:30.761Z,2.53
2018-12-13T07:24:30.752Z,2.45
2018-12-13T07:25:30.738Z,2.47
2018-12-13T07:26:30.723Z,2.51
2018-12-13T07:27:30.707Z,2.48
2018-12-13T07:28:30.688Z,2.50
2018-12-13T07:29:30.673Z,2.55
2018-12-13T07:30:30.664Z,2.50
2018-12-13T07:31:30.648Z,2.48
2018-12-13T07:32:30.629Z,2.38
2018-12-13T07:33:30.614Z,2.32
2018-12-13T07:34:30.601Z,2.27
2018-12-13T07:35:30.586Z,2.40
2018-12-13T07:36:30.577Z,2.37
2018-12-13T07:37:30.561Z,2.48
2018-12-13T07:38:30.547Z,2.40
2018-12-13T07:39:30.532Z,2.36
2018-12-13T07:40:30.515Z,2.47
2018-12-13T07:41:30.498Z,2.48
2018-12-13T07:42:30.483Z,2.47
2018-12-13T07:43:30.470Z,2.44
2018-12-13T07:44:30.459Z,2.53
2018-12-13T07:45:30.443Z,2.58
2018-12-13T07:46:30.426Z,2.53
2018-12-13T07:47:30.411Z,2.53
2018-12-13T07:48:30.401Z,2.68
2018-12-13T07:49:30.386Z,2.51
2018-12-13T07:50:30.372Z,2.62
2018-12-13T07:51:30.360Z,2.59
2018-12-13T07:52:30.341Z,2.61
2018-12-13T07:53:30.324Z,2.68
2018-12-13T07:54:30.315Z,2.71
2018-12-13T07:55:30.296Z,2.80
2018-12-13T07:56:30.287Z,2.68
2018-12-13T07:57:30.272Z,2.73
2018-12-13T07:58:30.256Z,2.84
2018-12-13T07:59:30.242Z,2.87
2018-12-13T08:00:30.224Z,2.68
2018-12-13T08:01:30.211Z,2.83
2018-12-13T08:02:30.199Z,2.77
2018-12-13T08:03:30.184Z,2.83
2018-12-13T08:04:30.165Z,2.81
2018-12-13T08:05:30.150Z,2.87
2018-12-13T08:06:30.139Z,2.80
2018-12-13T08:07:30.123Z,2.83
2018-12-13T08:08:30.116Z,2.84
2018-12-13T08:09:30.098Z,2.87
2018-12-13T08:10:30.084Z,2.89
2018-12-13T08:11:30.070Z,2.95
2018-12-13T08:12:30.050Z,2.87
2018-12-13T08:13:30.038Z,3.01
2018-12-13T08:14:30.020Z,3.15
2018-12-13T08:15:30.007Z,3.39
2018-12-13T08:16:29.998Z,3.56
2018-12-13T08:17:29.981Z,3.56
2018-12-13T08:18:29.967Z,3.68
2018-12-13T08:19:29.950Z,3.56
2018-12-13T08:20:29.939Z,3.64
2018-12-13T08:21:29.932Z,3.52
2018-12-13T08:22:29.911Z,3.46
2018-12-13T08:23:29.897Z,3.37
2018-12-13T08:24:29.878Z,3.26
2018-12-13T08:25:29.862Z,3.41
2018-12-13T08:26:29.849Z,3.35
2018-12-13T08:27:29.836Z,3.41
2018-12-13T08:28:29.825Z,3.39
2018-12-13T08:29:29.811Z,3.34
2018-12-13T08:30:29.798Z,3.39
2018-12-13T08:31:29.784Z,3.31
2018-12-13T08:32:29.766Z,3.31
2018-12-13T08:33:29.749Z,3.37
2018-12-13T08:34:29.745Z,3.35
2018-12-13T08:35:29.726Z,3.31
2018-12-13T08:36:29.707Z,3.19
2018-12-13T08:37:29.694Z,3.33
2018-12-13T08:38:29.679Z,3.31
2018-12-13T08:39:29.665Z,3.39
2018-12-13T08:40:29.655Z,3.31
2018-12-13T08:41:29.640Z,3.37
2018-12-13T08:42:29.626Z,3.35
2018-12-13T08:43:29.614Z,3.34
2018-12-13T08:44:29.594Z,3.37
2018-12-13T08:45:29.582Z,3.39
2018-12-13T08:46:29.566Z,3.31
2018-12-13T08:47:29.552Z,3.42
2018-12-13T08:48:29.543Z,3.41
2018-12-13T08:49:29.529Z,3.39
2018-12-13T08:50:29.535Z,3.35
2018-12-13T08:51:29.495Z,3.34
2018-12-13T08:52:29.486Z,3.34
2018-12-13T08:53:29.473Z,3.33
2018-12-13T08:54:29.457Z,3.34
2018-12-13T08:55:29.443Z,3.28
2018-12-13T08:56:29.426Z,3.28
2018-12-13T08:57:29.410Z,3.42
2018-12-13T08:58:29.396Z,3.45
2018-12-13T08:59:29.382Z,3.52
2018-12-13T09:00:29.372Z,3.59
2018-12-13T09:01:29.358Z,3.59
2018-12-13T09:02:29.345Z,3.59
2018-12-13T09:03:29.332Z,3.70
2018-12-13T09:04:29.312Z,3.77
2018-12-13T09:05:29.298Z,3.81
2018-12-13T09:06:29.289Z,3.77
2018-12-13T09:07:29.276Z,3.96
2018-12-13T09:08:33.659Z,3.99
2018-12-13T09:09:29.241Z,3.92
2018-12-13T09:10:29.228Z,3.92
2018-12-13T09:11:29.215Z,3.93
2018-12-13T09:12:29.205Z,3.82
2018-12-13T09:13:29.191Z,3.92
2018-12-13T09:14:29.176Z,3.90
2018-12-13T09:15:29.162Z,3.88
2018-12-13T09:16:31.638Z,3.96
2018-12-13T09:17:29.129Z,3.99
2018-12-13T09:18:29.117Z,3.93
2018-12-13T09:19:29.103Z,4.04
2018-12-13T09:20:29.094Z,4.02
2018-12-13T09:21:29.080Z,4.14
2018-12-13T09:22:29.060Z,4.11
2018-12-13T09:23:29.048Z,4.14
2018-12-13T09:24:29.038Z,4.06
2018-12-13T09:25:29.024Z,4.21
2018-12-13T09:26:29.011Z,4.10
2018-12-13T09:27:28.996Z,4.11
2018-12-13T09:28:28.978Z,3.99
2018-12-13T09:29:28.965Z,4.04
2018-12-13T09:30:28.951Z,4.20
2018-12-13T09:31:28.938Z,4.31
2018-12-13T09:32:28.936Z,4.50
2018-12-13T09:33:28.914Z,4.90
2018-12-13T09:34:28.901Z,5.35
2018-12-13T09:35:28.890Z,5.85
2018-12-13T09:36:28.870Z,6.58
2018-12-13T09:37:28.855Z,7.26
2018-12-13T09:38:28.847Z,8.06
2018-12-13T09:39:28.834Z,8.93
2018-12-13T09:40:28.817Z,9.55
2018-12-13T09:41:28.810Z,9.67
2018-12-13T09:42:28.793Z,9.98
2018-12-13T09:43:28.782Z,9.74
2018-12-13T09:44:28.777Z,10.17
2018-12-13T09:45:28.764Z,10.70
2018-12-13T09:46:28.753Z,10.81
2018-12-13T09:47:28.743Z,11.16
2018-12-13T09:48:28.727Z,11.72
2018-12-13T09:49:28.720Z,11.46
2018-12-13T09:50:28.708Z,11.13
2018-12-13T09:51:28.700Z,11.62
2018-12-13T09:52:28.694Z,11.39
2018-12-13T09:53:28.688Z,11.26
2018-12-13T09:54:28.673Z,11.64
2018-12-13T09:55:28.665Z,12.05
2018-12-13T09:56:28.662Z,11.74
2018-12-13T09:57:28.654Z,11.27
2018-12-13T09:58:28.647Z,10.32
2018-12-13T09:59:28.639Z,9.89
2018-12-13T10:00:28.628Z,9.93
2018-12-13T10:01:28.620Z,9.77
2018-12-13T10:02:28.613Z,10.07
2018-12-13T10:03:28.606Z,10.68
2018-12-13T10:04:28.606Z,11.46
2018-12-13T10:05:28.598Z,11.39
2018-12-13T10:06:28.592Z,10.32
2018-12-13T10:07:28.584Z,10.54
2018-12-13T10:08:28.574Z,11.26
2018-12-13T10:09:28.567Z,11.31
2018-12-13T10:10:28.565Z,11.45
2018-12-13T10:11:28.560Z,11.82
2018-12-13T10:12:28.553Z,11.90
2018-12-13T10:13:28.544Z,12.22
2018-12-13T10:14:28.538Z,12.43
2018-12-13T10:15:32.032Z,11.75
2018-12-13T10:16:28.532Z,11.77
2018-12-13T10:17:28.528Z,12.21
2018-12-13T10:18:28.520Z,12.54
2018-12-13T10:19:28.517Z,12.87
2018-12-13T10:20:28.505Z,12.46
2018-12-13T10:21:28.501Z,12.91
2018-12-13T10:22:28.733Z,12.77
2018-12-13T10:23:28.489Z,12.76
2018-12-13T10:24:28.490Z,12.59
2018-12-13T10:25:28.484Z,12.25
2018-12-13T10:26:28.475Z,12.23
2018-12-13T10:27:28.473Z,12.33
2018-12-13T10:28:28.470Z,12.49
2018-12-13T10:29:28.464Z,12.38
2018-12-13T10:30:28.461Z,11.27
2018-12-13T10:31:28.457Z,11.66
2018-12-13T10:32:28.448Z,11.46
2018-12-13T10:33:28.442Z,11.09
2018-12-13T10:34:28.438Z,11.57
2018-12-13T10:35:28.433Z,12.12
2018-12-13T10:36:28.434Z,12.33
2018-12-13T10:37:28.427Z,12.46
2018-12-13T10:38:28.425Z,12.89
2018-12-13T10:39:28.419Z,13.07
2018-12-13T10:40:28.410Z,12.95
2018-12-13T10:41:28.404Z,13.01
2018-12-13T10:42:28.406Z,13.01
2018-12-13T10:43:28.401Z,12.70
2018-12-13T10:44:28.393Z,12.87
2018-12-13T10:45:28.387Z,13.25
2018-12-13T10:46:28.389Z,13.31
2018-12-13T10:47:28.378Z,12.87
2018-12-13T10:48:28.377Z,12.88
2018-12-13T10:49:28.372Z,12.33
2018-12-13T10:50:28.370Z,12.03
2018-12-13T10:51:28.363Z,11.85
2018-12-13T10:52:28.357Z,12.26
2018-12-13T10:53:28.353Z,11.12
2018-12-13T10:54:28.345Z,10.62
2018-12-13T10:55:28.340Z,10.83
2018-12-13T10:56:28.341Z,11.28
2018-12-13T10:57:28.335Z,11.57
2018-12-13T10:58:28.326Z,11.78
2018-12-13T10:59:28.321Z,11.08
2018-12-13T11:00:28.321Z,11.27
2018-12-13T11:01:28.316Z,11.63
2018-12-13T11:02:28.310Z,11.56
2018-12-13T11:03:28.305Z,11.09
2018-12-13T11:04:28.295Z,10.43
2018-12-13T11:05:28.290Z,9.91
2018-12-13T11:06:28.285Z,10.35
2018-12-13T11:07:28.279Z,10.36
2018-12-13T11:08:28.284Z,10.31
2018-12-13T11:09:28.274Z,10.84
2018-12-13T11:10:28.269Z,11.16
2018-12-13T11:11:28.263Z,11.63
2018-12-13T11:12:28.253Z,11.74
2018-12-13T11:13:28.246Z,12.03
2018-12-13T11:14:28.246Z,11.77
2018-12-13T11:15:28.241Z,10.22
2018-12-13T11:16:28.233Z,10.11
2018-12-13T11:17:28.225Z,10.10
2018-12-13T11:18:28.217Z,10.24
2018-12-13T11:19:28.215Z,10.35
2018-12-13T11:20:28.212Z,10.11
2018-12-13T11:21:28.205Z,9.40
2018-12-13T11:22:28.197Z,9.53
2018-12-13T11:23:28.191Z,9.38
2018-12-13T11:24:28.184Z,9.16
2018-12-13T11:25:28.174Z,8.61
2018-12-13T11:26:28.168Z,8.39
2018-12-13T11:27:28.161Z,8.54
2018-12-13T11:28:28.160Z,8.32
2018-12-13T11:29:28.185Z,7.88
2018-12-13T11:30:28.140Z,7.51
2018-12-13T11:31:28.131Z,7.58
2018-12-13T11:32:28.129Z,7.66
2018-12-13T11:33:28.121Z,7.45
2018-12-13T11:34:28.113Z,7.58
2018-12-13T11:35:28.103Z,7.55
2018-12-13T11:36:28.090Z,7.44
2018-12-13T11:37:28.081Z,7.29
2018-12-13T11:38:28.073Z,7.11
2018-12-13T11:39:28.064Z,6.89
2018-12-13T11:40:28.060Z,6.91
2018-12-13T11:41:28.051Z,6.90
2018-12-13T11:42:28.041Z,6.55
2018-12-13T11:43:28.037Z,6.58
2018-12-13T11:44:28.018Z,6.54
2018-12-13T11:45:28.007Z,6.60
2018-12-13T11:46:28.001Z,6.60
2018-12-13T11:47:27.991Z,6.50
2018-12-13T11:48:27.978Z,6.55
2018-12-13T11:49:27.966Z,6.36
2018-12-13T11:50:27.956Z,5.92
2018-12-13T11:51:27.950Z,5.88
2018-12-13T11:52:27.942Z,5.95
2018-12-13T11:53:27.930Z,5.84
2018-12-13T11:54:27.919Z,5.78
2018-12-13T11:55:27.909Z,5.84
2018-12-13T11:56:27.895Z,5.85
2018-12-13T11:57:27.881Z,5.88
2018-12-13T11:58:27.870Z,5.88
2018-12-13T11:59:27.858Z,5.77
2018-12-13T12:00:27.855Z,5.92
2018-12-13T12:01:27.840Z,5.77
2018-12-13T12:02:27.827Z,5.70
2018-12-13T12:03:27.813Z,5.65
2018-12-13T12:04:27.806Z,5.78
2018-12-13T12:05:27.795Z,5.80
2018-12-13T12:06:27.783Z,5.55
2018-12-13T12:07:27.772Z,5.59
2018-12-13T12:08:27.756Z,5.62
2018-12-13T12:09:27.743Z,5.74
2018-12-13T12:10:27.732Z,5.75
2018-12-13T12:11:27.719Z,5.69
2018-12-13T12:12:27.712Z,5.60
2018-12-13T12:13:27.700Z,5.56
2018-12-13T12:14:27.689Z,5.60
2018-12-13T12:15:27.676Z,5.60
2018-12-13T12:16:27.660Z,5.52
2018-12-13T12:17:27.647Z,5.59
2018-12-13T12:18:27.640Z,5.75
2018-12-13T12:19:27.628Z,5.67
2018-12-13T12:20:27.611Z,5.78
2018-12-13T12:21:27.603Z,5.92
2018-12-13T12:22:27.589Z,5.98
2018-12-13T12:23:27.575Z,6.13
2018-12-13T12:24:27.569Z,6.01
2018-12-13T12:25:27.556Z,5.90
2018-12-13T12:26:27.547Z,5.84
2018-12-13T12:27:27.533Z,5.81
2018-12-13T12:28:27.515Z,5.84
2018-12-13T12:29:27.503Z,5.96
2018-12-13T12:30:27.494Z,5.95
2018-12-13T12:31:27.478Z,6.16
2018-12-13T12:32:27.472Z,6.10
2018-12-13T12:33:27.458Z,6.16
2018-12-13T12:34:27.441Z,5.96
2018-12-13T12:35:27.430Z,6.06
2018-12-13T12:36:27.422Z,6.13
2018-12-13T12:37:27.411Z,6.19
2018-12-13T12:38:27.398Z,6.27
2018-12-13T12:39:27.389Z,6.24
2018-12-13T12:40:27.369Z,6.11
2018-12-13T12:41:27.356Z,6.21
2018-12-13T12:42:27.347Z,6.27
2018-12-13T12:43:27.332Z,6.40
2018-12-13T12:44:27.325Z,6.38
2018-12-13T12:45:27.313Z,6.50
2018-12-13T12:46:27.303Z,6.46
2018-12-13T12:47:27.289Z,6.42
2018-12-13T12:48:27.272Z,6.48
2018-12-13T12:49:27.260Z,6.27
2018-12-13T12:50:27.252Z,6.35
2018-12-13T12:51:27.241Z,6.13
2018-12-13T12:52:27.225Z,5.96
2018-12-13T12:53:27.213Z,5.88
2018-12-13T12:54:27.198Z,5.83
2018-12-13T12:55:27.188Z,5.66
2018-12-13T12:56:27.179Z,5.73
2018-12-13T12:57:27.165Z,5.66
2018-12-13T12:58:27.157Z,5.81
2018-12-13T12:59:27.143Z,5.81
2018-12-13T13:00:27.125Z,5.98
2018-12-13T13:01:27.114Z,5.99
2018-12-13T13:02:27.100Z,5.98
2018-12-13T13:03:27.094Z,5.95
2018-12-13T13:04:27.082Z,5.98
2018-12-13T13:05:27.068Z,5.93
2018-12-13T13:06:27.051Z,5.77
2018-12-13T13:07:27.039Z,5.70
2018-12-13T13:08:27.035Z,5.66
2018-12-13T13:09:27.021Z,5.67
2018-12-13T13:10:27.006Z,5.60
2018-12-13T13:11:26.995Z,5.62
2018-12-13T13:12:26.978Z,5.56
2018-12-13T13:13:26.966Z,5.60
2018-12-13T13:14:26.955Z,5.67
2018-12-13T13:15:26.940Z,5.69